Time;durP1;ratioP1;P1;durP2;ratioP2;P2;SDS_P1;SDS_P2;PMS_P1;PMS_P2;Temp;Humidity;BMP_temperature;BMP_pressure;BME280_temperature;BME280_humidity;BME280_pressure;Samples;Min_cycle;Max_cycle;Signal;HPM_P1;HPM_P2
2023/09/29 00:00:58;;;;;;;20.13;15.45;;;19.60;99.90;;;;;;4917100;29;20036;-78
2023/09/29 00:03:25;;;;;;;18.55;15.88;;;19.50;99.90;;;;;;4916682;29;20492;-78
2023/09/29 00:05:53;;;;;;;22.83;16.27;;;19.60;99.90;;;;;;4916977;29;20052;-78
2023/09/29 00:08:22;;;;;;;23.15;16.15;;;19.50;99.90;;;;;;4917025;29;20107;-78
2023/09/29 00:10:50;;;;;;;28.08;17.73;;;19.50;99.90;;;;;;4915823;29;20034;-78
2023/09/29 00:13:19;;;;;;;27.08;17.65;;;19.50;99.90;;;;;;4915953;29;20068;-78
2023/09/29 00:15:48;;;;;;;24.42;16.63;;;19.50;99.90;;;;;;4916531;29;20103;-78
2023/09/29 00:18:15;;;;;;;25.73;17.05;;;19.50;99.90;;;;;;4916865;29;20035;-78
2023/09/29 00:20:41;;;;;;;26.40;15.93;;;19.50;99.90;;;;;;4916709;29;20135;-78
2023/09/29 00:23:07;;;;;;;21.42;16.73;;;19.50;99.90;;;;;;4916465;29;20024;-78
2023/09/29 00:25:34;;;;;;;25.15;16.40;;;19.50;99.90;;;;;;4916264;29;20520;-78
2023/09/29 00:28:00;;;;;;;22.35;17.08;;;19.50;99.90;;;;;;4915614;29;20111;-78
2023/09/29 00:30:27;;;;;;;25.65;16.83;;;19.50;99.90;;;;;;4916775;29;20024;-78
2023/09/29 00:32:54;;;;;;;28.23;17.38;;;19.50;99.90;;;;;;4916377;29;20040;-78
2023/09/29 00:35:27;;;;;;;25.05;16.92;;;19.40;99.90;;;;;;4915327;29;20501;-78
2023/09/29 00:37:56;;;;;;;22.67;16.88;;;19.40;99.90;;;;;;4916654;29;20038;-78
2023/09/29 00:40:26;;;;;;;21.33;16.75;;;19.40;99.90;;;;;;4916521;29;20040;-78
2023/09/29 00:42:52;;;;;;;24.15;17.17;;;19.40;99.90;;;;;;4916270;29;20032;-78
2023/09/29 00:45:22;;;;;;;25.35;16.73;;;19.30;99.90;;;;;;4915146;29;20036;-78
2023/09/29 00:47:51;;;;;;;24.77;17.23;;;19.30;99.90;;;;;;4915309;29;20032;-78
2023/09/29 00:50:21;;;;;;;23.50;16.92;;;19.30;99.90;;;;;;4916541;29;20401;-78
2023/09/29 00:52:51;;;;;;;21.67;17.65;;;19.30;99.90;;;;;;4915826;29;20490;-78
2023/09/29 00:55:20;;;;;;;28.38;17.88;;;19.30;99.90;;;;;;4916634;29;20040;-78
2023/09/29 00:57:48;;;;;;;26.77;18.30;;;19.30;99.90;;;;;;4903472;29;20411;-78
2023/09/29 01:00:29;;;;;;;23.67;18.33;;;19.30;99.90;;;;;;4920311;29;20088;-78
2023/09/29 01:02:57;;;;;;;31.20;18.80;;;19.20;99.90;;;;;;4919949;29;20080;-78
2023/09/29 01:05:25;;;;;;;26.73;18.50;;;19.20;99.90;;;;;;4920058;29;20032;-78
2023/09/29 01:07:52;;;;;;;33.28;19.10;;;19.20;99.90;;;;;;4918959;29;20031;-78
2023/09/29 01:10:19;;;;;;;33.63;19.85;;;19.20;99.90;;;;;;4920151;29;20441;-78
2023/09/29 01:12:45;;;;;;;27.08;18.23;;;19.10;99.90;;;;;;4902953;29;20043;-78
2023/09/29 01:15:15;;;;;;;23.20;17.95;;;19.00;99.90;;;;;;4919778;29;20028;-78
2023/09/29 01:17:43;;;;;;;28.10;18.83;;;19.00;99.90;;;;;;4920035;29;20091;-78
2023/09/29 01:20:17;;;;;;;30.52;18.73;;;19.00;99.90;;;;;;4919893;29;20067;-78
2023/09/29 01:22:45;;;;;;;24.63;17.45;;;18.90;99.90;;;;;;4918404;29;20560;-78
2023/09/29 01:25:20;;;;;;;32.72;19.13;;;18.90;99.90;;;;;;4901033;29;20041;-78
2023/09/29 01:27:52;;;;;;;24.67;17.60;;;18.90;99.90;;;;;;4901043;29;20039;-78
2023/09/29 01:30:18;;;;;;;26.08;17.25;;;18.90;99.90;;;;;;4916810;29;20036;-78
2023/09/29 01:32:50;;;;;;;26.05;18.48;;;18.80;99.90;;;;;;4919496;29;20028;-78
2023/09/29 01:35:18;;;;;;;36.63;19.77;;;18.80;99.90;;;;;;4899498;29;20040;-78
2023/09/29 01:37:46;;;;;;;25.75;18.13;;;18.80;99.90;;;;;;4900832;29;20044;-78
2023/09/29 01:40:14;;;;;;;23.90;17.67;;;18.90;99.90;;;;;;4900783;29;20040;-78
2023/09/29 01:42:43;;;;;;;23.88;17.60;;;18.90;99.90;;;;;;4904851;29;20019;-78
2023/09/29 01:45:16;;;;;;;22.95;16.92;;;18.70;99.90;;;;;;4918196;29;20482;-78
2023/09/29 01:47:47;;;;;;;21.03;17.03;;;18.70;99.90;;;;;;4919535;29;20036;-78
2023/09/29 01:50:16;;;;;;;25.42;17.38;;;18.60;99.90;;;;;;4919422;29;20397;-78
2023/09/29 01:52:46;;;;;;;25.30;16.80;;;18.50;99.90;;;;;;4918809;29;20048;-78
2023/09/29 01:55:19;;;;;;;30.80;17.98;;;18.40;99.90;;;;;;4900563;29;20032;-78
2023/09/29 01:57:47;;;;;;;27.67;18.95;;;18.40;99.90;;;;;;4900416;29;20487;-78
2023/09/29 02:00:25;;;;;;;26.17;17.75;;;18.30;99.90;;;;;;4914775;29;20167;-78
2023/09/29 02:02:53;;;;;;;25.08;17.50;;;18.30;99.90;;;;;;4917534;29;20034;-78
2023/09/29 02:05:20;;;;;;;24.95;17.85;;;18.30;99.90;;;;;;4919049;29;20556;-78
2023/09/29 02:07:49;;;;;;;31.08;17.92;;;18.40;99.90;;;;;;4918657;29;20398;-78
2023/09/29 02:10:20;;;;;;;28.80;18.30;;;18.40;99.90;;;;;;4919020;29;20486;-78
2023/09/29 02:12:57;;;;;;;25.15;17.20;;;18.40;99.90;;;;;;4917498;29;20516;-78
2023/09/29 02:15:26;;;;;;;31.58;16.38;;;18.50;99.90;;;;;;4918907;29;20043;-78
2023/09/29 02:17:52;;;;;;;33.35;18.20;;;18.50;99.90;;;;;;4917998;29;20024;-78
2023/09/29 02:20:36;;;;;;;26.98;16.63;;;18.60;99.90;;;;;;4917650;29;20044;-78
2023/09/29 02:23:05;;;;;;;23.90;16.30;;;18.60;99.90;;;;;;4918540;29;20040;-78
2023/09/29 02:25:32;;;;;;;23.73;17.08;;;18.60;99.90;;;;;;4901743;29;20032;-78
2023/09/29 02:28:00;;;;;;;21.98;16.35;;;18.70;99.90;;;;;;4918802;29;20115;-78
2023/09/29 02:30:28;;;;;;;25.90;16.35;;;18.70;99.90;;;;;;4918741;29;20024;-78
2023/09/29 02:32:55;;;;;;;34.30;17.67;;;18.70;99.90;;;;;;4918354;29;20039;-78
2023/09/29 02:35:22;;;;;;;28.85;17.92;;;18.80;99.90;;;;;;4918685;29;20103;-78
2023/09/29 02:37:49;;;;;;;26.70;18.15;;;18.80;99.90;;;;;;4918380;29;20072;-78
2023/09/29 02:40:15;;;;;;;27.95;17.88;;;18.90;99.90;;;;;;4918493;29;20039;-78
2023/09/29 02:42:46;;;;;;;34.72;19.17;;;18.90;99.90;;;;;;4918204;29;20103;-78
2023/09/29 02:45:13;;;;;;;37.25;21.38;;;19.00;99.90;;;;;;4917166;29;20043;-78
2023/09/29 02:47:41;;;;;;;36.40;20.20;;;19.00;99.90;;;;;;4918408;29;20036;-78
2023/09/29 02:50:12;;;;;;;47.08;20.70;;;19.00;99.90;;;;;;4918410;29;20079;-78
2023/09/29 02:52:40;;;;;;;33.90;20.55;;;19.00;99.90;;;;;;4916699;29;20048;-78
2023/09/29 02:55:12;;;;;;;35.20;20.55;;;19.10;99.90;;;;;;4916982;29;20127;-78
2023/09/29 02:57:42;;;;;;;34.33;20.10;;;19.00;99.90;;;;;;4918163;29;20453;-78
2023/09/29 03:00:18;;;;;;;38.08;20.17;;;19.10;99.90;;;;;;4918086;29;20536;-78
2023/09/29 03:02:46;;;;;;;32.08;20.35;;;19.10;99.90;;;;;;4916714;29;20040;-78
2023/09/29 03:05:14;;;;;;;51.58;21.35;;;19.00;99.90;;;;;;4918142;29;20031;-78
2023/09/29 03:07:43;;;;;;;39.80;20.48;;;19.00;99.90;;;;;;4917946;29;20024;-79
2023/09/29 03:10:16;;;;;;;33.40;20.50;;;18.90;99.90;;;;;;4918329;29;20031;-79
2023/09/29 03:12:45;;;;;;;32.27;20.90;;;18.90;99.90;;;;;;4904734;29;20044;-78
2023/09/29 03:15:15;;;;;;;59.75;21.58;;;18.80;99.90;;;;;;4919048;29;20367;-79
2023/09/29 03:17:44;;;;;;;38.10;21.75;;;18.80;99.90;;;;;;4917156;29;20039;-79
2023/09/29 03:20:16;;;;;;;46.60;22.85;;;18.70;99.90;;;;;;4917972;29;20448;-78
2023/09/29 03:22:46;;;;;;;34.88;21.25;;;18.70;99.90;;;;;;4916786;29;20552;-79
2023/09/29 03:25:18;;;;;;;39.72;20.98;;;18.70;99.90;;;;;;4916638;29;20043;-79
2023/09/29 03:27:45;;;;;;;41.50;21.50;;;18.70;99.90;;;;;;4916054;29;20028;-78
2023/09/29 03:30:12;;;;;;;36.90;21.15;;;18.60;99.90;;;;;;4917767;29;20036;-78
2023/09/29 03:32:39;;;;;;;40.50;20.98;;;18.60;99.90;;;;;;4917398;29;20103;-78
2023/09/29 03:35:07;;;;;;;33.92;20.90;;;18.60;99.90;;;;;;4917280;29;20035;-78
2023/09/29 03:37:36;;;;;;;43.53;20.92;;;18.60;99.90;;;;;;4917543;29;20036;-78
2023/09/29 03:40:14;;;;;;;36.13;20.00;;;18.60;99.90;;;;;;4917449;29;20099;-78
2023/09/29 03:42:43;;;;;;;37.90;19.45;;;18.60;99.90;;;;;;4916205;29;20048;-78
2023/09/29 03:45:11;;;;;;;35.97;21.02;;;18.60;99.90;;;;;;4917090;29;20099;-78
2023/09/29 03:47:41;;;;;;;42.45;21.35;;;18.50;99.90;;;;;;4917307;29;20028;-78
2023/09/29 03:50:11;;;;;;;38.45;21.80;;;18.50;99.90;;;;;;4915857;29;20044;-78
2023/09/29 03:52:39;;;;;;;31.33;19.27;;;18.50;99.90;;;;;;4915860;29;20048;-78
2023/09/29 03:55:06;;;;;;;36.13;21.13;;;18.50;99.90;;;;;;4916950;29;20031;-79
2023/09/29 03:57:34;;;;;;;39.47;21.40;;;18.40;99.90;;;;;;4917092;29;20393;-79
2023/09/29 04:00:01;;;;;;;46.33;23.88;;;18.40;99.90;;;;;;4915394;29;20042;-79
2023/09/29 04:02:27;;;;;;;44.63;22.92;;;18.40;99.90;;;;;;4915897;29;20052;-78
2023/09/29 04:04:54;;;;;;;42.83;23.60;;;18.40;99.90;;;;;;4916675;29;20032;-79
2023/09/29 04:07:22;;;;;;;48.28;22.40;;;18.40;99.90;;;;;;4915435;29;20107;-79
2023/09/29 04:09:48;;;;;;;38.70;21.85;;;18.30;99.90;;;;;;4916956;29;20024;-79
2023/09/29 04:12:15;;;;;;;37.42;21.27;;;18.30;99.90;;;;;;4916998;29;20627;-79
2023/09/29 04:14:41;;;;;;;40.63;22.00;;;18.20;99.90;;;;;;4915401;29;20055;-78
2023/09/29 04:17:07;;;;;;;43.00;23.20;;;18.30;99.90;;;;;;4916012;29;20050;-79
2023/09/29 04:19:35;;;;;;;37.10;21.60;;;18.30;99.90;;;;;;4916756;29;20029;-79
2023/09/29 04:22:01;;;;;;;38.47;21.92;;;18.40;99.90;;;;;;4900883;29;20031;-79
2023/09/29 04:24:28;;;;;;;37.38;19.88;;;18.30;99.90;;;;;;4915477;29;20028;-79
2023/09/29 04:26:54;;;;;;;35.47;19.70;;;18.30;99.90;;;;;;4917528;29;20489;-79
2023/09/29 04:29:20;;;;;;;32.65;20.00;;;18.20;99.90;;;;;;4915884;29;20084;-79
2023/09/29 04:31:49;;;;;;;30.75;18.38;;;18.10;99.90;;;;;;4917752;29;20482;-78
2023/09/29 04:34:16;;;;;;;29.17;19.30;;;18.10;99.90;;;;;;4915317;29;20486;-79
2023/09/29 04:36:42;;;;;;;35.97;18.98;;;18.10;99.90;;;;;;4917458;29;20032;-78
2023/09/29 04:39:09;;;;;;;30.02;18.15;;;18.10;99.90;;;;;;4916562;29;20078;-79
2023/09/29 04:41:35;;;;;;;32.20;19.00;;;18.10;99.90;;;;;;4917695;29;20482;-78
2023/09/29 04:44:04;;;;;;;31.88;20.08;;;18.10;99.90;;;;;;4916597;29;20040;-78
2023/09/29 04:46:30;;;;;;;32.17;19.73;;;18.10;99.90;;;;;;4917356;29;20028;-78
2023/09/29 04:48:58;;;;;;;37.33;20.50;;;18.20;99.90;;;;;;4916572;29;20099;-79
2023/09/29 04:51:24;;;;;;;35.13;22.17;;;18.30;99.90;;;;;;4916954;29;20028;-78
2023/09/29 04:53:54;;;;;;;37.50;21.73;;;18.30;99.90;;;;;;4915306;29;20036;-79
2023/09/29 04:56:20;;;;;;;36.70;21.25;;;18.30;99.90;;;;;;4916186;29;20430;-78
2023/09/29 04:58:47;;;;;;;36.58;21.00;;;18.30;99.90;;;;;;4915010;29;20111;-78
2023/09/29 05:01:20;;;;;;;32.65;20.08;;;18.40;99.90;;;;;;4916433;29;20095;-79
2023/09/29 05:03:47;;;;;;;27.73;18.63;;;18.40;99.90;;;;;;4916344;29;20059;-79
2023/09/29 05:06:14;;;;;;;36.22;20.38;;;18.30;99.90;;;;;;4914997;29;20427;-79
2023/09/29 05:08:40;;;;;;;30.40;18.00;;;18.40;99.90;;;;;;4916350;29;20397;-78
2023/09/29 05:11:25;;;;;;;27.63;17.40;;;18.50;99.90;;;;;;4915145;29;20032;-79
2023/09/29 05:13:53;;;;;;;26.17;16.27;;;18.50;99.90;;;;;;4915114;29;20119;-80
2023/09/29 05:16:19;;;;;;;24.23;16.08;;;18.50;99.90;;;;;;4914990;29;20103;-80
2023/09/29 05:18:53;;;;;;;26.83;15.85;;;18.60;99.90;;;;;;4916146;29;20083;-80
2023/09/29 05:21:22;;;;;;;18.95;15.18;;;18.60;99.90;;;;;;4916394;29;20434;-79
2023/09/29 05:23:50;;;;;;;21.70;14.10;;;18.70;99.90;;;;;;4915131;29;20036;-78
2023/09/29 05:26:20;;;;;;;18.08;14.65;;;18.80;99.90;;;;;;4914899;29;20032;-78
2023/09/29 05:28:49;;;;;;;19.55;14.10;;;18.90;99.90;;;;;;4916262;29;20519;-78
2023/09/29 05:31:17;;;;;;;18.75;14.48;;;19.10;99.90;;;;;;4916233;29;20434;-78
2023/09/29 05:33:43;;;;;;;19.13;14.70;;;19.10;99.90;;;;;;4914913;29;20115;-78
2023/09/29 05:36:10;;;;;;;19.27;14.85;;;19.30;99.90;;;;;;4915949;29;20119;-79
2023/09/29 05:38:37;;;;;;;16.83;14.18;;;19.40;99.90;;;;;;4915847;29;20064;-79
2023/09/29 05:41:03;;;;;;;20.30;14.30;;;19.60;99.90;;;;;;4915861;29;20051;-79
2023/09/29 05:43:30;;;;;;;15.90;14.02;;;19.80;99.90;;;;;;4918394;29;20026;-78
2023/09/29 05:45:56;;;;;;;16.33;13.18;;;20.00;99.90;;;;;;4919253;29;20032;-80
2023/09/29 05:48:23;;;;;;;14.63;13.32;;;20.40;99.90;;;;;;4919408;29;20025;-80
2023/09/29 05:50:50;;;;;;;15.35;13.75;;;20.70;99.90;;;;;;4919055;29;20047;-79
2023/09/29 05:53:17;;;;;;;15.77;14.25;;;21.40;99.90;;;;;;4917830;29;20056;-80
2023/09/29 05:55:43;;;;;;;20.23;17.00;;;21.90;99.90;;;;;;4919148;29;20167;-80
2023/09/29 05:58:10;;;;;;;20.52;18.73;;;22.50;99.90;;;;;;4919303;29;20032;-80
2023/09/29 06:00:36;;;;;;;22.45;20.77;;;23.00;99.90;;;;;;4917974;29;20039;-80
2023/09/29 06:03:03;;;;;;;26.27;23.98;;;23.40;99.90;;;;;;4918566;29;20020;-80
2023/09/29 06:05:29;;;;;;;26.80;24.70;;;23.60;99.90;;;;;;4918911;29;20493;-80
2023/09/29 06:07:56;;;;;;;27.00;24.63;;;23.80;99.90;;;;;;4919150;29;20028;-80
2023/09/29 06:10:23;;;;;;;25.52;23.55;;;23.80;99.90;;;;;;4918941;29;20023;-80
2023/09/29 06:12:49;;;;;;;27.08;24.60;;;24.20;99.90;;;;;;4917909;29;20036;-80
2023/09/29 06:15:16;;;;;;;27.48;25.30;;;24.50;99.90;;;;;;4918792;29;20092;-80
2023/09/29 06:17:42;;;;;;;28.65;26.30;;;24.70;99.90;;;;;;4918476;29;20028;-80
2023/09/29 06:20:09;;;;;;;29.85;26.88;;;24.80;99.90;;;;;;4918520;29;20051;-80
2023/09/29 06:22:36;;;;;;;29.20;26.60;;;24.70;99.90;;;;;;4918909;29;20475;-80
2023/09/29 06:25:05;;;;;;;28.63;26.25;;;24.80;99.90;;;;;;4917628;29;20028;-81
2023/09/29 06:27:32;;;;;;;29.27;26.75;;;24.50;99.90;;;;;;4918078;29;20024;-80
2023/09/29 06:30:02;;;;;;;30.13;27.33;;;24.60;99.90;;;;;;4918776;29;20123;-80
2023/09/29 06:32:29;;;;;;;31.35;28.25;;;24.70;99.90;;;;;;4901935;29;20028;-80
2023/09/29 06:34:55;;;;;;;32.40;29.20;;;24.70;99.90;;;;;;4918606;29;20051;-80
2023/09/29 06:37:21;;;;;;;32.88;29.90;;;24.80;99.90;;;;;;4917172;29;20060;-80
2023/09/29 06:39:48;;;;;;;34.20;30.75;;;24.70;99.90;;;;;;4917189;29;20063;-80
2023/09/29 06:42:15;;;;;;;33.10;30.20;;;24.90;99.90;;;;;;4918525;29;20028;-80
2023/09/29 06:44:41;;;;;;;33.10;29.80;;;25.20;99.90;;;;;;4917143;29;20538;-79
2023/09/29 06:47:08;;;;;;;32.42;29.55;;;25.40;99.90;;;;;;4918071;29;20024;-78
2023/09/29 06:49:34;;;;;;;33.25;30.13;;;26.10;99.90;;;;;;4918319;29;20080;-78
2023/09/29 06:52:00;;;;;;;34.20;30.60;;;26.50;99.90;;;;;;4917503;29;20047;-78
2023/09/29 06:54:27;;;;;;;32.38;28.98;;;26.80;99.90;;;;;;4917817;29;20032;-78
2023/09/29 06:56:53;;;;;;;32.15;28.77;;;26.70;99.90;;;;;;4916814;29;20043;-78
2023/09/29 06:59:19;;;;;;;33.00;28.50;;;26.90;99.90;;;;;;4918071;29;20390;-80
2023/09/29 07:01:47;;;;;;;31.70;28.60;;;26.90;99.90;;;;;;4916945;29;20028;-78
2023/09/29 07:04:15;;;;;;;33.33;29.88;;;26.70;99.90;;;;;;4916879;29;20028;-80
2023/09/29 07:06:42;;;;;;;31.13;27.83;;;26.70;99.90;;;;;;4917837;29;20060;-80
2023/09/29 07:09:09;;;;;;;29.05;26.75;;;26.70;99.90;;;;;;4917844;29;20028;-80
2023/09/29 07:11:39;;;;;;;29.77;27.20;;;26.80;99.90;;;;;;4917952;29;20020;-80
2023/09/29 07:14:09;;;;;;;29.40;26.75;;;26.50;99.90;;;;;;4917823;29;20024;-80
2023/09/29 07:16:42;;;;;;;29.35;26.70;;;26.50;99.90;;;;;;4917548;29;20086;-80
2023/09/29 07:19:12;;;;;;;28.85;25.98;;;26.20;99.90;;;;;;4916513;29;20043;-80
2023/09/29 07:21:40;;;;;;;29.92;26.85;;;25.80;99.90;;;;;;4917810;29;20036;-79
2023/09/29 07:24:07;;;;;;;30.52;27.40;;;25.50;99.90;;;;;;4917752;29;20414;-79
2023/09/29 07:26:38;;;;;;;28.88;26.33;;;25.60;99.90;;;;;;4917417;29;20043;-80
2023/09/29 07:29:05;;;;;;;41.53;27.25;;;25.80;99.90;;;;;;4916392;29;20040;-80
2023/09/29 07:31:46;;;;;;;29.55;27.05;;;25.90;99.90;;;;;;4900671;29;20047;-78
2023/09/29 07:34:16;;;;;;;29.00;26.60;;;25.80;99.90;;;;;;4917629;29;20051;-78
2023/09/29 07:36:46;;;;;;;29.48;26.90;;;25.80;99.90;;;;;;4917445;29;20012;-83
2023/09/29 07:39:28;;;;;;;29.13;26.67;;;26.10;99.90;;;;;;4900482;29;20119;-83
2023/09/29 07:42:13;;;;;;;29.88;27.35;;;26.20;99.90;;;;;;4905337;29;20052;-79
2023/09/29 07:44:41;;;;;;;29.73;27.15;;;26.50;99.90;;;;;;4916220;29;20032;-80
2023/09/29 07:47:08;;;;;;;30.30;27.63;;;26.10;99.90;;;;;;4915852;29;20031;-80
2023/09/29 07:49:40;;;;;;;29.27;26.92;;;25.70;99.90;;;;;;4916151;29;20040;-80
2023/09/29 07:52:07;;;;;;;29.25;26.63;;;25.60;99.90;;;;;;4916139;29;20055;-79
2023/09/29 07:54:37;;;;;;;29.55;26.60;;;25.80;99.90;;;;;;4917014;29;20036;-79
2023/09/29 07:57:04;;;;;;;29.17;26.90;;;26.10;99.90;;;;;;4917140;29;20225;-78
2023/09/29 07:59:31;;;;;;;30.33;27.50;;;26.50;99.90;;;;;;4915816;29;20079;-79
2023/09/29 08:02:03;;;;;;;29.77;27.55;;;26.70;99.90;;;;;;4917252;29;20028;-80
2023/09/29 08:04:33;;;;;;;31.48;28.45;;;26.40;99.90;;;;;;4915818;29;20023;-80
2023/09/29 08:06:59;;;;;;;31.55;28.73;;;26.30;99.90;;;;;;4915313;29;20032;-81
2023/09/29 08:09:26;;;;;;;31.58;28.63;;;26.00;99.90;;;;;;4915775;29;20032;-80
2023/09/29 08:11:52;;;;;;;30.38;27.85;;;25.50;99.90;;;;;;4915630;29;20032;-80
2023/09/29 08:14:22;;;;;;;31.23;28.15;;;25.60;99.90;;;;;;4899820;29;20376;-80
2023/09/29 08:16:48;;;;;;;31.50;28.50;;;25.90;99.90;;;;;;4898070;29;20386;-80
2023/09/29 08:19:17;;;;;;;30.42;28.08;;;26.10;99.90;;;;;;4914358;29;20501;-80
2023/09/29 08:21:44;;;;;;;31.17;28.20;;;26.10;99.90;;;;;;4915116;29;20227;-79
2023/09/29 08:24:12;;;;;;;31.42;28.67;;;26.10;99.90;;;;;;4915658;29;20020;-80
2023/09/29 08:26:39;;;;;;;30.95;28.42;;;26.00;99.90;;;;;;4916967;29;20024;-79
2023/09/29 08:29:14;;;;;;;30.15;27.35;;;26.10;99.90;;;;;;4916508;29;20163;-79
2023/09/29 08:31:43;;;;;;;29.10;26.75;;;26.30;99.90;;;;;;4916884;29;20043;-79
2023/09/29 08:34:11;;;;;;;30.60;27.38;;;26.40;99.90;;;;;;4916815;29;20031;-79
2023/09/29 08:36:37;;;;;;;31.77;28.92;;;26.50;99.90;;;;;;4916953;29;20028;-79
2023/09/29 08:39:04;;;;;;;30.70;28.17;;;26.90;99.90;;;;;;4915174;29;20024;-79
2023/09/29 08:41:35;;;;;;;31.42;28.88;;;26.90;99.90;;;;;;4915383;29;20039;-79
2023/09/29 08:44:08;;;;;;;32.28;29.55;;;26.90;99.90;;;;;;4916782;29;20056;-79
2023/09/29 08:46:35;;;;;;;31.95;29.33;;;27.30;99.90;;;;;;4915554;29;20040;-79
2023/09/29 08:49:06;;;;;;;31.65;29.15;;;27.10;99.90;;;;;;4899411;29;20474;-80
2023/09/29 08:51:33;;;;;;;31.75;29.15;;;27.20;99.90;;;;;;4916352;29;20228;-80
2023/09/29 08:54:05;;;;;;;31.55;29.20;;;27.10;99.90;;;;;;4899687;29;20040;-77
2023/09/29 08:56:31;;;;;;;33.20;30.10;;;27.20;99.90;;;;;;4916559;29;20371;-77
2023/09/29 08:59:03;;;;;;;34.33;29.95;;;27.30;99.90;;;;;;4916299;29;20032;-80
2023/09/29 09:01:33;;;;;;;32.63;29.67;;;27.10;99.90;;;;;;4916217;29;20032;-80
2023/09/29 09:04:03;;;;;;;32.10;29.42;;;27.10;99.90;;;;;;4899566;29;20455;-80
2023/09/29 09:06:31;;;;;;;32.33;29.58;;;27.20;99.90;;;;;;4916489;29;20103;-78
2023/09/29 09:08:58;;;;;;;31.23;28.40;;;27.10;99.90;;;;;;4915010;29;20059;-78
2023/09/29 09:11:27;;;;;;;30.02;27.38;;;27.10;99.90;;;;;;4916453;29;20059;-78
2023/09/29 09:13:58;;;;;;;31.55;28.90;;;27.30;99.90;;;;;;4916386;29;20465;-78
2023/09/29 09:16:26;;;;;;;29.65;27.55;;;27.20;99.90;;;;;;4918054;29;20028;-79
2023/09/29 09:18:53;;;;;;;29.67;27.40;;;27.40;99.90;;;;;;4919820;29;20024;-79
2023/09/29 09:21:20;;;;;;;30.23;27.75;;;27.40;99.90;;;;;;4918790;29;20044;-79
2023/09/29 09:23:47;;;;;;;29.95;27.85;;;27.20;99.90;;;;;;4918534;29;20031;-79
2023/09/29 09:26:16;;;;;;;30.30;27.50;;;27.60;99.90;;;;;;4918848;29;20028;-79
2023/09/29 09:28:43;;;;;;;30.27;27.58;;;27.70;99.90;;;;;;4899892;29;20399;-79
2023/09/29 09:31:11;;;;;;;30.55;27.92;;;27.90;99.90;;;;;;4900861;29;20040;-79
2023/09/29 09:33:37;;;;;;;30.45;28.10;;;27.80;99.90;;;;;;4903431;29;20088;-80
2023/09/29 09:36:11;;;;;;;30.50;28.08;;;28.00;99.90;;;;;;4918511;29;20028;-79
2023/09/29 09:38:37;;;;;;;31.15;28.50;;;27.70;99.90;;;;;;4918663;29;20052;-79
2023/09/29 09:41:06;;;;;;;30.60;28.25;;;27.70;99.90;;;;;;4918454;29;20040;-79
2023/09/29 09:43:37;;;;;;;29.77;27.65;;;27.60;99.90;;;;;;4918255;29;20032;-80
2023/09/29 09:46:12;;;;;;;30.40;27.88;;;27.50;99.90;;;;;;4919231;29;20039;-78
2023/09/29 09:48:42;;;;;;;30.10;27.55;;;27.40;99.90;;;;;;4918528;29;20511;-79
2023/09/29 09:51:12;;;;;;;30.52;28.35;;;26.90;99.90;;;;;;4919545;29;20043;-79
2023/09/29 09:53:39;;;;;;;30.30;28.02;;;27.10;99.90;;;;;;4900745;29;20045;-79
2023/09/29 09:56:20;;;;;;;30.65;28.00;;;27.20;99.90;;;;;;4898638;29;20060;-79
2023/09/29 09:58:52;;;;;;;29.80;27.38;;;27.00;99.90;;;;;;4884005;29;20144;-80
2023/09/29 10:01:20;;;;;;;30.23;27.88;;;27.10;99.90;;;;;;4900576;29;20040;-80
2023/09/29 10:03:47;;;;;;;30.15;27.65;;;27.40;99.90;;;;;;4900410;29;20483;-81
2023/09/29 10:06:14;;;;;;;29.90;27.45;;;27.50;99.90;;;;;;4900253;29;20188;-80
2023/09/29 10:08:41;;;;;;;29.73;27.42;;;27.60;99.90;;;;;;4899488;29;20100;-79
2023/09/29 10:11:13;;;;;;;31.15;28.35;;;27.90;99.90;;;;;;4899128;29;20032;-80
2023/09/29 10:13:48;;;;;;;29.40;27.40;;;27.60;99.90;;;;;;4900369;29;20064;-79
2023/09/29 10:16:24;;;;;;;29.98;27.60;;;27.70;99.90;;;;;;4895807;29;20509;-80
2023/09/29 10:19:01;;;;;;;30.63;28.23;;;27.70;99.90;;;;;;4899053;29;20092;-80
2023/09/29 10:21:37;;;;;;;30.83;28.10;;;27.50;99.90;;;;;;4898892;29;20052;-80
2023/09/29 10:24:06;;;;;;;30.98;28.27;;;27.70;99.90;;;;;;4898846;29;20025;-80
2023/09/29 10:26:48;;;;;;;31.25;28.63;;;28.00;99.90;;;;;;4899615;29;20029;-80
2023/09/29 12:59:26;;;;;;;30.40;27.95;;;27.10;99.90;;;;;;4922325;29;20052;-80
2023/09/29 13:01:52;;;;;;;30.10;27.67;;;27.00;99.90;;;;;;4905608;29;20056;-82
2023/09/29 13:04:28;;;;;;;29.67;27.52;;;26.90;99.90;;;;;;4920327;29;20079;-82
2023/09/29 13:06:55;;;;;;;30.17;27.63;;;27.10;99.90;;;;;;4904038;29;20051;-82
2023/09/29 13:09:21;;;;;;;31.15;28.52;;;27.10;99.90;;;;;;4904184;29;20028;-81
2023/09/29 13:11:48;;;;;;;30.23;27.98;;;27.10;99.90;;;;;;4904049;29;20028;-81
2023/09/29 13:14:15;;;;;;;30.70;28.20;;;27.30;99.90;;;;;;4919802;29;20036;-81
2023/09/29 13:16:41;;;;;;;30.55;27.35;;;27.40;99.90;;;;;;4920397;29;20032;-82
2023/09/29 13:19:08;;;;;;;30.73;28.33;;;27.30;99.90;;;;;;4920222;29;20028;-82
2023/09/29 13:21:35;;;;;;;31.15;28.73;;;27.30;99.90;;;;;;4919362;29;20104;-83
2023/09/29 13:24:01;;;;;;;33.05;29.30;;;27.30;99.90;;;;;;4919549;29;20036;-82
2023/09/29 13:26:28;;;;;;;30.25;27.85;;;27.10;99.90;;;;;;4920592;29;20043;-81
2023/09/29 13:28:54;;;;;;;31.48;28.73;;;27.20;99.90;;;;;;4903542;29;20055;-81
2023/09/29 13:32:49;;;;;;;30.88;28.30;;;27.00;99.90;;;;;;5172972;27;20112;-83
2023/09/29 13:35:16;;;;;;;31.25;28.73;;;26.70;99.90;;;;;;5116447;27;20031;-82
2023/09/29 13:37:42;;;;;;;30.98;28.65;;;26.80;99.90;;;;;;5150051;27;20524;-82
2023/09/29 13:40:09;;;;;;;31.15;28.65;;;26.90;99.90;;;;;;5152175;27;20364;-82
2023/09/29 13:42:37;;;;;;;30.85;28.33;;;26.90;99.90;;;;;;5116645;27;20090;-82
2023/09/29 13:45:05;;;;;;;29.90;27.48;;;26.90;99.90;;;;;;5133640;27;20018;-82
2023/09/29 13:47:32;;;;;;;31.10;28.48;;;26.80;99.90;;;;;;5149028;27;20111;-82
2023/09/29 13:50:01;;;;;;;31.20;28.58;;;26.70;99.90;;;;;;5112758;28;20111;-82
2023/09/29 13:52:28;;;;;;;31.20;28.33;;;26.80;99.90;;;;;;5095732;28;20127;-83
2023/09/29 13:54:55;;;;;;;30.30;28.08;;;26.70;99.90;;;;;;5112547;28;20023;-83
2023/09/29 13:57:23;;;;;;;30.70;27.92;;;26.70;99.90;;;;;;5108319;27;20038;-83
2023/09/29 13:59:50;;;;;;;31.20;28.75;;;26.80;99.90;;;;;;5131040;28;20054;-83
2023/09/29 14:02:16;;;;;;;30.42;27.88;;;26.60;99.90;;;;;;5112574;28;20024;-83
2023/09/29 14:04:44;;;;;;;30.63;28.17;;;26.50;99.90;;;;;;5095552;28;20047;-82
2023/09/29 14:07:11;;;;;;;31.52;28.42;;;26.30;99.90;;;;;;5112802;28;20031;-82
2023/09/29 14:09:38;;;;;;;31.35;28.63;;;26.30;99.90;;;;;;5151271;27;20027;-82
2023/09/29 14:12:07;;;;;;;31.30;28.75;;;26.20;99.90;;;;;;5150201;27;20542;-83
2023/09/29 14:14:34;;;;;;;30.10;27.88;;;26.10;99.90;;;;;;5132848;27;20144;-82
2023/09/29 14:17:00;;;;;;;30.42;28.08;;;26.20;99.90;;;;;;5132623;27;20033;-83
2023/09/29 14:19:27;;;;;;;30.50;28.17;;;26.30;99.90;;;;;;5111738;28;20026;-83
2023/09/29 14:21:54;;;;;;;30.27;27.88;;;26.30;99.90;;;;;;5112161;28;20031;-83
2023/09/29 14:24:21;;;;;;;31.05;28.50;;;26.40;99.90;;;;;;5130503;28;20027;-82
2023/09/29 14:26:47;;;;;;;31.85;29.13;;;26.00;99.90;;;;;;5112079;28;20421;-84
2023/09/29 14:29:16;;;;;;;31.85;28.58;;;26.10;99.90;;;;;;5147049;27;20050;-82
2023/09/29 14:31:44;;;;;;;31.80;29.38;;;26.00;99.90;;;;;;5115028;27;20483;-83
2023/09/29 14:34:13;;;;;;;31.90;29.08;;;26.00;99.90;;;;;;5132470;27;20483;-83
2023/09/29 14:36:39;;;;;;;30.75;28.25;;;25.90;99.90;;;;;;5132404;27;20023;-83
2023/09/29 14:39:12;;;;;;;32.28;29.55;;;25.80;99.90;;;;;;5135126;27;20356;-83
2023/09/29 14:41:39;;;;;;;31.02;28.58;;;25.70;99.90;;;;;;5128891;28;20432;-82
2023/09/29 14:44:07;;;;;;;31.25;28.65;;;25.70;99.90;;;;;;5132755;27;20024;-82
2023/09/29 14:46:33;;;;;;;31.38;28.60;;;25.70;99.90;;;;;;5098288;28;20103;-82
2023/09/29 14:49:01;;;;;;;31.77;29.17;;;25.50;99.90;;;;;;5095605;27;20483;-83
2023/09/29 14:51:27;;;;;;;31.25;28.77;;;25.40;99.90;;;;;;5118532;27;20125;-83
2023/09/29 14:53:54;;;;;;;31.77;28.85;;;25.50;99.90;;;;;;5135604;27;20023;-82
2023/09/29 14:56:20;;;;;;;32.00;29.45;;;25.50;99.90;;;;;;5118397;27;20020;-83
2023/09/29 14:58:47;;;;;;;30.83;28.20;;;25.50;99.90;;;;;;5124202;27;20066;-83
2023/09/29 15:01:14;;;;;;;32.83;29.17;;;25.40;99.90;;;;;;5114831;28;20032;-82
2023/09/29 15:03:41;;;;;;;31.95;29.13;;;25.30;99.90;;;;;;5081379;28;20087;-83
2023/09/29 15:06:09;;;;;;;31.63;29.05;;;25.10;99.90;;;;;;5097937;28;20483;-82